Time;durP1;ratioP1;P1;durP2;ratioP2;P2;SDS_P1;SDS_P2;PMS_P1;PMS_P2;Temp;Humidity;BMP_temperature;BMP_pressure;BME280_temperature;BME280_humidity;BME280_pressure;Samples;Min_cycle;Max_cycle;Signal;HPM_P1;HPM_P2
2021/10/11 00:00:31;;;;;;;;;61.25;49.75;;;;;16.46;59.77;102201.28;2092560;28;45379;-51
2021/10/11 00:01:32;;;;;;;;;59.50;47.00;;;;;16.45;59.80;102215.59;2083464;28;46388;-50
2021/10/11 00:02:32;;;;;;;;;65.25;51.25;;;;;16.44;59.96;102209.38;2083367;28;46243;-48
2021/10/11 00:03:33;;;;;;;;;62.25;49.50;;;;;16.45;59.98;102210.25;2091736;28;48445;-50
2021/10/11 00:04:33;;;;;;;;;57.25;46.75;;;;;16.45;60.16;102205.75;2091735;28;45139;-52
2021/10/11 00:05:34;;;;;;;;;58.25;47.00;;;;;16.46;59.95;102202.16;2090372;28;48340;-50
2021/10/11 00:06:34;;;;;;;;;61.75;48.75;;;;;16.47;59.95;102205.72;2084110;28;48896;-48
2021/10/11 00:07:35;;;;;;;;;57.75;45.50;;;;;16.48;60.42;102204.81;2089255;28;48034;-53
2021/10/11 00:08:35;;;;;;;;;60.25;48.50;;;;;16.48;59.91;102205.69;2091661;28;48221;-53
2021/10/11 00:09:36;;;;;;;;;62.75;50.25;;;;;16.49;60.24;102201.22;2091806;28;47887;-51
2021/10/11 00:10:36;;;;;;;;;62.50;50.25;;;;;16.49;60.11;102199.41;2091525;28;45537;-54
2021/10/11 00:11:37;;;;;;;;;63.50;50.25;;;;;16.50;60.53;102208.34;2083689;28;47893;-50
2021/10/11 00:12:37;;;;;;;;;66.00;51.50;;;;;16.50;60.16;102194.94;2089742;28;46861;-52
2021/10/11 00:13:38;;;;;;;;;64.25;51.75;;;;;16.52;59.93;102200.28;2089288;28;48284;-53
2021/10/11 00:14:39;;;;;;;;;61.00;50.00;;;;;16.53;60.36;102199.38;2091980;28;47538;-49
2021/10/11 00:15:39;;;;;;;;;58.25;46.75;;;;;16.53;59.83;102202.94;2092137;28;47331;-52
2021/10/11 00:16:40;;;;;;;;;62.00;49.50;;;;;16.53;60.18;102202.94;2091892;28;47114;-52
2021/10/11 00:17:41;;;;;;;;;61.75;49.25;;;;;16.54;60.04;102211.84;2087750;28;45379;-48
2021/10/11 00:18:41;;;;;;;;;60.60;49.00;;;;;16.54;60.08;102206.50;2091926;28;47873;-54
2021/10/11 00:19:43;;;;;;;;;66.50;51.00;;;;;16.53;60.30;102207.41;2083176;28;47926;-52
2021/10/11 00:20:43;;;;;;;;;60.60;49.60;;;;;16.54;59.97;102206.50;2087464;28;46443;-51
2021/10/11 00:21:45;;;;;;;;;55.50;45.75;;;;;16.53;60.35;102204.72;2091225;28;48185;-53
2021/10/11 00:22:46;;;;;;;;;61.00;49.60;;;;;16.53;60.19;102207.41;2091303;28;48238;-49
2021/10/11 00:23:46;;;;;;;;;59.50;48.75;;;;;16.51;60.67;102203.84;2091945;28;47221;-52
2021/10/11 00:24:47;;;;;;;;;57.25;47.50;;;;;16.52;60.77;102205.66;2092519;28;47077;-51
2021/10/11 00:25:48;;;;;;;;;64.00;50.20;;;;;16.49;60.25;102204.78;2091209;28;47231;-52
2021/10/11 00:26:48;;;;;;;;;64.50;52.00;;;;;16.48;60.65;102204.81;2083490;28;47616;-51
2021/10/11 00:27:49;;;;;;;;;62.50;50.50;;;;;16.46;60.72;102198.59;2091333;28;47417;-52
2021/10/11 00:28:49;;;;;;;;;60.00;48.50;;;;;16.45;60.28;102202.22;2099962;28;47245;-52
2021/10/11 00:29:50;;;;;;;;;68.25;53.25;;;;;16.45;60.46;102207.56;2082091;28;45373;-49
2021/10/11 00:30:50;;;;;;;;;60.25;47.75;;;;;16.43;61.03;102198.69;2083333;28;47316;-51
2021/10/11 00:31:50;;;;;;;;;61.75;49.75;;;;;16.44;60.62;102204.00;2091991;28;47339;-50
2021/10/11 00:32:51;;;;;;;;;62.25;49.25;;;;;16.45;60.86;102207.56;2091848;28;47591;-53
2021/10/11 00:33:52;;;;;;;;;63.00;49.75;;;;;16.44;60.60;102205.81;2085983;28;47083;-52
2021/10/11 00:34:52;;;;;;;;;62.75;49.50;;;;;16.44;60.87;102203.13;2084386;28;46981;-49
2021/10/11 00:35:53;;;;;;;;;59.00;46.75;;;;;16.43;61.00;102206.72;2091801;28;48039;-52
2021/10/11 00:36:53;;;;;;;;;62.50;51.50;;;;;16.43;60.78;102206.72;2087765;28;47826;-50
2021/10/11 00:37:54;;;;;;;;;60.50;49.00;;;;;16.43;60.94;102214.75;2082966;28;47332;-52
2021/10/11 00:38:54;;;;;;;;;59.00;47.50;;;;;16.41;60.82;102204.09;2091482;28;47722;-52
2021/10/11 00:39:55;;;;;;;;;61.00;49.50;;;;;16.41;60.95;102205.88;2091913;28;45305;-54
2021/10/11 00:40:55;;;;;;;;;62.25;49.25;;;;;16.39;60.98;102203.25;2092359;28;46996;-51
2021/10/11 00:41:56;;;;;;;;;64.00;51.50;;;;;16.39;61.17;102197.00;2091709;28;48170;-49
2021/10/11 00:42:56;;;;;;;;;61.50;49.50;;;;;16.38;60.96;102209.47;2097727;28;47153;-52
2021/10/11 00:44:01;;;;;;;;;62.25;50.50;;;;;16.37;61.05;102207.72;2091235;28;48404;-51
2021/10/11 00:45:02;;;;;;;;;65.00;52.20;;;;;16.36;61.21;102197.91;2092625;28;46007;-51
2021/10/11 00:46:03;;;;;;;;;64.00;52.00;;;;;16.34;61.24;102205.13;2080647;28;47149;-50
2021/10/11 00:47:04;;;;;;;;;62.25;50.00;;;;;16.35;61.34;102198.84;2076470;28;47470;-52
2021/10/11 00:48:04;;;;;;;;;63.75;51.00;;;;;16.33;61.26;102208.72;2086669;28;47430;-51
2021/10/11 00:49:05;;;;;;;;;62.50;49.75;;;;;16.32;61.45;102206.94;2091936;28;47360;-51
2021/10/11 00:50:06;;;;;;;;;63.50;51.75;;;;;16.32;61.16;102209.63;2090594;28;47243;-51
2021/10/11 00:51:07;;;;;;;;;67.60;52.80;;;;;16.30;61.60;102198.06;2091329;28;47451;-53
2021/10/11 00:52:08;;;;;;;;;62.75;51.25;;;;;16.30;61.60;102202.56;2092085;28;47313;-51
2021/10/11 00:53:09;;;;;;;;;62.75;51.00;;;;;16.30;61.67;102197.19;2090454;28;47515;-50
2021/10/11 00:54:10;;;;;;;;;62.00;49.75;;;;;16.29;61.24;102198.13;2091874;28;47189;-49
2021/10/11 00:55:10;;;;;;;;;64.80;52.20;;;;;16.28;61.87;102205.28;2090979;28;48232;-50
2021/10/11 00:56:11;;;;;;;;;66.00;51.50;;;;;16.28;61.80;102199.03;2091614;28;48050;-49
2021/10/11 00:57:11;;;;;;;;;62.00;49.50;;;;;16.26;61.84;102204.44;2091524;28;48347;-53
2021/10/11 00:58:12;;;;;;;;;60.75;50.25;;;;;16.26;61.69;102200.81;2091496;28;47167;-53
2021/10/11 00:59:12;;;;;;;;;66.50;53.25;;;;;16.26;61.53;102198.16;2091358;28;48223;-52
2021/10/11 01:00:13;;;;;;;;;64.00;51.25;;;;;16.24;61.80;102192.84;2092074;28;47440;-50
2021/10/11 01:01:14;;;;;;;;;62.60;51.00;;;;;16.24;61.85;102192.84;2091824;28;48413;-51
2021/10/11 01:02:14;;;;;;;;;64.75;52.25;;;;;16.23;62.16;102193.75;2092307;28;45361;-52
2021/10/11 01:03:15;;;;;;;;;62.50;50.50;;;;;16.22;61.65;102197.34;2091145;28;48147;-50
2021/10/11 01:04:15;;;;;;;;;66.00;51.75;;;;;16.23;61.84;102192.88;2091552;28;46980;-53
2021/10/11 01:05:16;;;;;;;;;65.50;52.25;;;;;16.22;62.01;102193.78;2091627;28;48199;-52
2021/10/11 01:06:16;;;;;;;;;64.25;51.25;;;;;16.21;61.77;102192.03;2092092;28;48247;-54
2021/10/11 01:07:17;;;;;;;;;65.00;51.25;;;;;16.21;62.02;102189.34;2091844;28;47202;-52
2021/10/11 01:08:17;;;;;;;;;65.00;52.50;;;;;16.19;61.85;102187.59;2091326;28;48435;-49
2021/10/11 01:09:18;;;;;;;;;59.50;48.25;;;;;16.19;62.20;102192.94;2091147;28;47332;-54
2021/10/11 01:10:18;;;;;;;;;64.25;51.50;;;;;16.18;62.08;102193.84;2087854;28;47229;-52
2021/10/11 01:11:19;;;;;;;;;66.75;54.25;;;;;16.19;62.53;102194.75;2092064;28;46631;-53
2021/10/11 01:12:19;;;;;;;;;63.25;51.25;;;;;16.18;62.32;102201.91;2092030;28;47482;-52
2021/10/11 01:13:20;;;;;;;;;64.50;51.50;;;;;16.18;62.27;102196.53;2091578;28;47417;-51
2021/10/11 01:14:20;;;;;;;;;64.00;50.75;;;;;16.17;62.13;102193.91;2092107;28;48041;-50
2021/10/11 01:15:21;;;;;;;;;65.00;52.00;;;;;16.16;62.62;102189.47;2091944;28;48307;-50
2021/10/11 01:16:21;;;;;;;;;65.00;52.50;;;;;16.15;62.21;102196.63;2092088;28;45301;-49
2021/10/11 01:17:22;;;;;;;;;63.75;50.50;;;;;16.16;62.55;102197.50;2090472;28;46117;-52
2021/10/11 01:18:22;;;;;;;;;61.00;49.25;;;;;16.16;62.22;102197.50;2091438;28;47383;-51
2021/10/11 01:19:23;;;;;;;;;65.25;52.00;;;;;16.17;62.47;102200.13;2091826;28;47706;-51
2021/10/11 01:20:23;;;;;;;;;62.50;50.50;;;;;16.17;62.67;102194.78;2091755;28;47555;-52
2021/10/11 01:21:25;;;;;;;;;67.75;55.25;;;;;16.19;62.52;102202.78;2091819;28;47402;-49
2021/10/11 01:22:36;;;;;;;;;65.80;53.20;;;;;16.19;62.45;102197.41;2091762;28;48165;-48
2021/10/11 01:23:37;;;;;;;;;63.00;51.40;;;;;16.20;62.64;102199.19;2091727;28;47231;-51
2021/10/11 01:24:37;;;;;;;;;68.50;54.00;;;;;16.23;62.59;102198.22;2091317;28;45333;-53
2021/10/11 01:25:38;;;;;;;;;63.75;51.25;;;;;16.23;62.37;102198.22;2091073;28;47337;-49
2021/10/11 01:26:41;;;;;;;;;62.75;51.00;;;;;16.26;62.39;102201.75;2091306;28;47403;-52
2021/10/11 01:27:43;;;;;;;;;63.80;52.00;;;;;16.28;62.44;102196.34;2090769;28;46384;-57
2021/10/11 01:28:43;;;;;;;;;63.60;51.20;;;;;16.29;62.27;102201.66;2091942;28;48085;-52
2021/10/11 01:29:44;;;;;;;;;64.00;51.50;;;;;16.31;62.22;102194.47;2091927;28;47102;-51
2021/10/11 01:30:44;;;;;;;;;69.50;55.75;;;;;16.32;62.37;102201.59;2091799;28;47154;-52
2021/10/11 01:31:45;;;;;;;;;62.50;50.50;;;;;16.34;62.44;102194.41;2091744;28;47182;-50
2021/10/11 01:32:47;;;;;;;;;63.75;51.50;;;;;16.34;62.66;102191.72;2091874;28;47280;-48
2021/10/11 01:33:47;;;;;;;;;63.40;51.20;;;;;16.36;62.45;102194.38;2091647;28;48633;-50
2021/10/11 01:34:48;;;;;;;;;63.25;49.25;;;;;16.37;62.17;102193.44;2091815;28;47233;-51
2021/10/11 01:35:48;;;;;;;;;66.00;51.00;;;;;16.37;62.31;102190.75;2091394;28;47431;-48
2021/10/11 01:36:48;;;;;;;;;63.50;51.00;;;;;16.38;62.24;102193.41;2091715;28;48117;-52
2021/10/11 01:37:50;;;;;;;;;63.25;50.75;;;;;16.38;62.70;102187.16;2091589;28;47261;-49
2021/10/11 01:38:55;;;;;;;;;63.00;50.80;;;;;16.38;62.62;102188.06;2091754;28;46508;-49
2021/10/11 01:39:55;;;;;;;;;63.60;51.40;;;;;16.38;62.29;102187.16;2091652;28;48313;-52
2021/10/11 01:40:56;;;;;;;;;62.75;51.00;;;;;16.37;62.50;102178.25;2091536;28;47229;-48
2021/10/11 01:41:56;;;;;;;;;63.00;51.25;;;;;16.38;62.59;102182.69;2091643;28;46181;-48
2021/10/11 01:42:57;;;;;;;;;65.00;52.75;;;;;16.39;62.52;102181.81;2091557;28;48629;-51
2021/10/11 01:43:58;;;;;;;;;62.25;50.00;;;;;16.40;62.53;102180.00;2091424;28;47769;-47
2021/10/11 01:44:58;;;;;;;;;67.00;55.00;;;;;16.38;62.24;102171.97;2094056;28;48061;-53
2021/10/11 01:45:59;;;;;;;;;66.25;51.50;;;;;16.36;62.53;102170.25;2091422;28;48081;-49
2021/10/11 01:47:00;;;;;;;;;62.25;51.00;;;;;16.36;62.33;102167.56;2091445;28;47249;-51
2021/10/11 01:48:01;;;;;;;;;65.25;51.00;;;;;16.35;62.32;102171.16;2091653;28;47989;-47
2021/10/11 01:49:03;;;;;;;;;61.60;49.80;;;;;16.33;62.57;102168.53;2091716;28;47302;-49
2021/10/11 01:50:05;;;;;;;;;65.20;51.40;;;;;16.33;62.39;102170.31;2091375;28;47822;-51
2021/10/11 01:51:05;;;;;;;;;63.00;50.20;;;;;16.33;62.30;102173.00;2091384;28;48294;-48
2021/10/11 01:52:06;;;;;;;;;63.00;51.00;;;;;16.33;62.79;102171.22;2091657;28;48255;-48
2021/10/11 01:53:06;;;;;;;;;64.75;51.25;;;;;16.32;62.64;102176.59;2091334;28;47356;-53
2021/10/11 01:54:07;;;;;;;;;67.75;56.00;;;;;16.32;62.63;102174.81;2091665;28;47455;-48
2021/10/11 01:55:08;;;;;;;;;63.75;49.50;;;;;16.32;62.69;102171.25;2088992;28;48265;-49
2021/10/11 01:56:09;;;;;;;;;62.00;49.20;;;;;16.33;62.53;102183.72;2090917;28;48213;-50
2021/10/11 01:57:10;;;;;;;;;65.75;52.50;;;;;16.34;62.57;102186.38;2090684;28;47135;-50
2021/10/11 01:58:11;;;;;;;;;61.80;50.00;;;;;16.35;62.26;102193.47;2090882;28;48183;-49
2021/10/11 01:59:11;;;;;;;;;61.75;50.75;;;;;16.37;62.24;102191.66;2087727;28;47401;-48
2021/10/11 02:00:12;;;;;;;;;58.25;47.50;;;;;16.37;62.66;102188.97;2091140;28;48030;-49
2021/10/11 02:01:12;;;;;;;;;65.75;51.75;;;;;16.38;62.23;102188.06;2091592;28;47707;-51
2021/10/11 02:02:13;;;;;;;;;65.00;51.75;;;;;16.40;62.68;102193.41;2091589;28;46337;-50
2021/10/11 02:03:13;;;;;;;;;64.00;50.00;;;;;16.40;62.62;102196.09;2090151;28;47081;-47
2021/10/11 02:04:14;;;;;;;;;60.00;48.00;;;;;16.42;62.26;102196.91;2091598;28;47245;-50
2021/10/11 02:05:14;;;;;;;;;63.75;50.50;;;;;16.42;62.33;102195.13;2090746;28;47197;-51
2021/10/11 02:06:15;;;;;;;;;61.75;49.25;;;;;16.42;62.41;102195.13;2082612;28;46985;-48
2021/10/11 02:07:15;;;;;;;;;63.50;49.25;;;;;16.44;62.26;102195.09;2089942;28;47599;-49
2021/10/11 02:08:16;;;;;;;;;61.25;50.50;;;;;16.45;62.27;102191.50;2091457;28;46345;-51
2021/10/11 02:09:17;;;;;;;;;60.75;50.00;;;;;16.46;62.62;102190.56;2091619;28;47913;-52
2021/10/11 02:10:18;;;;;;;;;64.00;51.00;;;;;16.45;62.71;102188.81;2091583;28;47360;-51
2021/10/11 02:11:18;;;;;;;;;61.00;47.75;;;;;16.45;62.23;102184.31;2091868;28;45530;-50
2021/10/11 02:12:19;;;;;;;;;56.25;46.75;;;;;16.46;62.74;102190.56;2086479;28;48075;-52
2021/10/11 02:13:19;;;;;;;;;60.50;48.50;;;;;16.46;62.42;102183.41;2091323;28;47944;-51
2021/10/11 02:14:20;;;;;;;;;60.75;48.75;;;;;16.45;62.75;102184.31;2088885;28;47292;-51
2021/10/11 02:15:20;;;;;;;;;60.50;49.00;;;;;16.46;62.22;102179.84;2091489;28;48631;-51
2021/10/11 02:16:20;;;;;;;;;61.75;49.00;;;;;16.47;62.61;102186.97;2090949;28;47992;-50
2021/10/11 02:17:22;;;;;;;;;61.00;48.00;;;;;16.47;62.42;102173.56;2090714;28;46143;-50
2021/10/11 02:18:22;;;;;;;;;62.60;50.20;;;;;16.48;62.53;102175.34;2091522;28;47941;-53
2021/10/11 02:19:23;;;;;;;;;60.25;47.75;;;;;16.48;62.56;102180.69;2090989;28;47287;-51
2021/10/11 02:20:25;;;;;;;;;61.50;48.50;;;;;16.49;62.36;102177.09;2090713;28;48411;-50
2021/10/11 02:21:26;;;;;;;;;56.80;47.80;;;;;16.48;62.48;102178.00;2091577;28;45389;-52
2021/10/11 02:22:26;;;;;;;;;59.25;48.00;;;;;16.49;62.46;102185.13;2091364;28;46984;-49
2021/10/11 02:23:27;;;;;;;;;60.75;49.25;;;;;16.49;62.77;102185.13;2089311;28;47219;-47
2021/10/11 02:24:27;;;;;;;;;56.50;45.25;;;;;16.49;62.88;102179.78;2082549;28;47376;-51
2021/10/11 02:25:28;;;;;;;;;60.25;47.50;;;;;16.49;62.66;102180.66;2082337;28;45856;-51
2021/10/11 02:26:28;;;;;;;;;59.25;47.25;;;;;16.48;62.64;102178.88;2090688;28;46127;-51
2021/10/11 02:27:29;;;;;;;;;56.50;47.00;;;;;16.48;62.68;102181.56;2082381;28;47230;-53
2021/10/11 02:28:29;;;;;;;;;58.00;48.00;;;;;16.47;62.60;102187.84;2090822;28;47688;-50
2021/10/11 02:29:30;;;;;;;;;60.50;48.00;;;;;16.46;62.71;102180.72;2083739;28;48051;-49
2021/10/11 02:30:31;;;;;;;;;57.75;46.75;;;;;16.48;62.57;102186.06;2091264;28;48234;-51
2021/10/11 02:31:31;;;;;;;;;60.00;49.00;;;;;16.48;62.71;102181.56;2090432;28;48219;-49
2021/10/11 02:32:32;;;;;;;;;57.75;47.00;;;;;16.49;62.83;102177.09;2091114;28;47237;-49
2021/10/11 02:33:32;;;;;;;;;58.25;48.00;;;;;16.48;62.65;102181.56;2091270;28;47553;-51
2021/10/11 02:34:33;;;;;;;;;59.75;47.75;;;;;16.49;62.74;102175.28;2091068;28;47110;-51
2021/10/11 02:35:33;;;;;;;;;56.25;46.25;;;;;16.50;62.66;102173.50;2090596;28;45372;-48
2021/10/11 02:36:34;;;;;;;;;59.25;48.00;;;;;16.49;62.77;102169.94;2091570;28;48054;-49
2021/10/11 02:37:35;;;;;;;;;64.25;49.00;;;;;16.51;62.52;102171.69;2091160;28;47465;-50
2021/10/11 02:38:36;;;;;;;;;58.40;46.40;;;;;16.51;63.14;102161.84;2091400;28;47528;-50
2021/10/11 02:39:36;;;;;;;;;61.80;49.80;;;;;16.52;62.52;102165.44;2091243;28;47374;-51
2021/10/11 02:40:39;;;;;;;;;60.00;47.25;;;;;16.49;62.92;102153.84;2091801;28;45957;-47
2021/10/11 02:41:39;;;;;;;;;60.40;49.00;;;;;16.51;63.15;102156.50;2091110;28;45653;-48
2021/10/11 02:42:40;;;;;;;;;62.00;48.50;;;;;16.52;62.74;102155.59;2094288;28;47401;-51
2021/10/11 02:43:40;;;;;;;;;64.25;51.25;;;;;16.51;62.93;102156.50;2091185;28;45384;-51
2021/10/11 02:44:41;;;;;;;;;55.50;45.75;;;;;16.51;62.75;102160.97;2093397;28;48008;-49
2021/10/11 02:45:41;;;;;;;;;61.25;49.25;;;;;16.51;62.73;102159.19;2104250;27;47472;-52
2021/10/11 02:46:41;;;;;;;;;61.50;49.25;;;;;16.52;62.84;102160.09;2099309;28;47357;-51
2021/10/11 02:47:42;;;;;;;;;60.50;49.75;;;;;16.52;63.12;102155.59;2091210;28;47353;-52
2021/10/11 02:48:42;;;;;;;;;56.00;45.00;;;;;16.51;62.91;102159.19;2091652;28;47001;-53
2021/10/11 02:49:43;;;;;;;;;59.25;48.25;;;;;16.51;62.87;102159.19;2091116;28;47999;-50
2021/10/11 02:50:44;;;;;;;;;60.25;49.75;;;;;16.50;63.03;102160.09;2091052;28;48381;-50
2021/10/11 02:51:44;;;;;;;;;61.25;48.00;;;;;16.51;63.11;102163.66;2091211;28;46880;-50
2021/10/11 02:52:44;;;;;;;;;60.75;47.50;;;;;16.49;62.70;102152.97;2090692;28;47094;-51
2021/10/11 02:53:49;;;;;;;;;61.50;48.75;;;;;16.49;63.27;102159.22;2090545;28;46700;-53
2021/10/11 02:54:49;;;;;;;;;59.00;47.20;;;;;16.51;63.14;102152.94;2090937;28;48249;-50
2021/10/11 02:55:50;;;;;;;;;62.00;50.75;;;;;16.49;62.97;102156.53;2091431;28;45306;-47
2021/10/11 02:56:50;;;;;;;;;60.25;49.25;;;;;16.50;63.44;102154.72;2091498;28;47410;-49
2021/10/11 02:57:50;;;;;;;;;61.00;49.25;;;;;16.52;63.05;102157.41;2091248;28;48093;-51
2021/10/11 02:58:51;;;;;;;;;56.50;46.75;;;;;16.51;63.14;102153.81;2090960;28;47156;-49
2021/10/11 02:59:51;;;;;;;;;57.50;46.50;;;;;16.51;63.32;102148.47;2090531;28;47172;-47
2021/10/11 03:00:52;;;;;;;;;53.00;45.00;;;;;16.52;62.81;102146.69;2091010;28;45333;-50
2021/10/11 03:01:52;;;;;;;;;57.00;46.50;;;;;16.52;63.15;102146.69;2080459;28;47090;-47
2021/10/11 03:02:53;;;;;;;;;59.00;47.25;;;;;16.52;63.02;102150.25;2087018;28;45476;-52
2021/10/11 03:03:53;;;;;;;;;58.50;47.00;;;;;16.52;63.23;102147.56;2085883;28;47898;-50
2021/10/11 03:04:54;;;;;;;;;53.50;45.25;;;;;16.54;63.15;102145.72;2087301;28;48492;-49
2021/10/11 03:05:54;;;;;;;;;60.75;49.00;;;;;16.54;62.89;102147.53;2086965;28;46173;-47
2021/10/11 03:06:55;;;;;;;;;61.25;48.25;;;;;16.54;63.36;102147.53;2090663;28;48577;-49
2021/10/11 03:07:55;;;;;;;;;60.00;47.75;;;;;16.54;63.24;102147.53;2090452;28;47299;-49
2021/10/11 03:08:56;;;;;;;;;60.75;48.50;;;;;16.54;63.49;102147.53;2090689;28;48092;-50
2021/10/11 03:09:56;;;;;;;;;59.25;46.50;;;;;16.54;63.08;102150.22;2088059;28;47897;-51
2021/10/11 03:10:57;;;;;;;;;56.25;45.25;;;;;16.53;63.23;102145.75;2088990;28;47165;-51
2021/10/11 03:11:57;;;;;;;;;59.80;47.20;;;;;16.53;63.16;102140.41;2090500;28;48564;-52
2021/10/11 03:12:58;;;;;;;;;61.25;48.25;;;;;16.54;63.14;102148.41;2090589;28;47304;-51
2021/10/11 03:13:58;;;;;;;;;55.75;46.00;;;;;16.54;63.29;102153.78;2091129;28;47530;-48
2021/10/11 03:14:59;;;;;;;;;59.75;48.00;;;;;16.54;63.24;102152.88;2091113;28;47427;-50
2021/10/11 03:15:59;;;;;;;;;57.00;46.75;;;;;16.54;63.35;102148.41;2091176;28;47398;-49
2021/10/11 03:17:00;;;;;;;;;57.75;46.25;;;;;16.56;63.37;102148.38;2082377;28;48311;-51
2021/10/11 03:18:00;;;;;;;;;58.25;47.00;;;;;16.55;63.14;102146.59;2088086;28;48229;-50
2021/10/11 03:19:01;;;;;;;;;53.50;44.25;;;;;16.57;63.43;102151.00;2086196;28;47957;-52
2021/10/11 03:20:02;;;;;;;;;58.50;47.25;;;;;16.57;63.43;102152.81;2090939;28;47089;-46
2021/10/11 03:21:03;;;;;;;;;58.60;47.60;;;;;16.56;63.06;102153.72;2090661;28;45622;-51
2021/10/11 03:22:04;;;;;;;;;56.25;45.75;;;;;16.57;63.34;102158.16;2090667;28;46710;-54
2021/10/11 03:23:04;;;;;;;;;69.50;58.75;;;;;16.55;63.51;102152.84;2090214;28;48143;-48
2021/10/11 03:24:05;;;;;;;;;68.50;57.00;;;;;16.57;63.18;102155.50;2090725;28;47136;-53
2021/10/11 03:25:06;;;;;;;;;60.75;49.50;;;;;16.57;63.60;102155.50;2090988;28;47937;-52
2021/10/11 03:26:06;;;;;;;;;55.00;46.00;;;;;16.57;63.25;102151.00;2082432;28;47617;-53
2021/10/11 03:27:06;;;;;;;;;56.75;46.50;;;;;16.57;63.51;102153.69;2082024;28;47100;-52
2021/10/11 03:28:07;;;;;;;;;56.25;45.50;;;;;16.57;63.23;102160.84;2091199;28;47368;-50
2021/10/11 03:29:07;;;;;;;;;52.75;44.00;;;;;16.55;63.48;102157.31;2091117;28;48416;-53
2021/10/11 03:30:08;;;;;;;;;54.00;43.75;;;;;16.54;63.47;102153.78;2091025;28;47169;-51
2021/10/11 03:31:09;;;;;;;;;56.75;45.25;;;;;16.53;63.70;102156.50;2091157;28;47166;-48
2021/10/11 03:32:09;;;;;;;;;55.50;44.75;;;;;16.53;63.79;102160.03;2091110;28;46919;-50
2021/10/11 03:33:10;;;;;;;;;51.00;42.00;;;;;16.53;63.65;102157.38;2090417;28;48316;-48
2021/10/11 03:34:11;;;;;;;;;58.00;46.25;;;;;16.53;63.76;102151.13;2090640;28;48415;-52
2021/10/11 03:35:12;;;;;;;;;56.00;45.00;;;;;16.52;63.82;102155.59;2090234;28;47371;-51
2021/10/11 03:36:12;;;;;;;;;57.50;47.00;;;;;16.53;63.79;102160.03;2090319;28;47438;-52
2021/10/11 03:37:13;;;;;;;;;55.75;45.00;;;;;16.53;64.02;102157.38;2090295;28;48212;-51
2021/10/11 03:38:13;;;;;;;;;54.00;44.25;;;;;16.53;63.65;102168.09;2089819;28;45216;-53
2021/10/11 03:39:14;;;;;;;;;56.75;44.75;;;;;16.54;63.58;102160.94;2090358;28;48041;-51
2021/10/11 03:40:14;;;;;;;;;55.50;45.00;;;;;16.54;63.83;102163.59;2090947;28;46339;-54
2021/10/11 03:41:15;;;;;;;;;56.50;45.75;;;;;16.54;63.78;102163.59;2090888;28;48224;-52
2021/10/11 03:42:15;;;;;;;;;52.00;43.00;;;;;16.54;63.99;102171.66;2086702;28;47194;-50
2021/10/11 03:43:16;;;;;;;;;51.50;42.75;;;;;16.54;63.89;102167.16;2093632;27;48141;-53
2021/10/11 03:44:17;;;;;;;;;55.25;44.75;;;;;16.55;63.69;102166.25;2090794;28;47323;-52
2021/10/11 03:45:17;;;;;;;;;51.40;42.60;;;;;16.55;63.75;102168.94;2097314;28;47815;-51
2021/10/11 03:46:18;;;;;;;;;51.25;43.00;;;;;16.58;63.77;102162.59;2090214;28;47190;-51
2021/10/11 03:47:18;;;;;;;;;52.50;43.25;;;;;16.58;63.74;102167.97;2090975;28;47389;-52
2021/10/11 03:48:18;;;;;;;;;49.75;40.00;;;;;16.59;63.70;102172.41;2090286;28;48152;-49
2021/10/11 03:49:19;;;;;;;;;49.00;40.75;;;;;16.59;63.87;102167.94;2090287;28;47393;-51
2021/10/11 03:50:19;;;;;;;;;46.75;39.50;;;;;16.61;63.84;102167.88;2090802;28;47423;-50
2021/10/11 03:51:21;;;;;;;;;56.75;45.00;;;;;16.61;64.00;102170.56;2090297;28;48229;-49
2021/10/11 03:52:22;;;;;;;;;49.80;40.80;;;;;16.62;64.07;102172.31;2090387;28;48212;-47
2021/10/11 03:53:22;;;;;;;;;48.50;39.75;;;;;16.62;63.95;102164.28;2090916;28;47297;-52
2021/10/11 03:54:22;;;;;;;;;42.50;35.75;;;;;16.63;63.64;102166.03;2090682;28;48100;-52
2021/10/11 03:55:23;;;;;;;;;46.00;39.75;;;;;16.62;64.11;102162.47;2091009;28;47184;-51
2021/10/11 03:56:23;;;;;;;;;43.00;36.00;;;;;16.63;64.03;102168.72;2090920;28;47257;-51
2021/10/11 03:57:24;;;;;;;;;49.00;41.25;;;;;16.63;64.13;102166.03;2090221;28;47654;-52
2021/10/11 03:58:24;;;;;;;;;45.50;39.50;;;;;16.62;63.63;102169.66;2090710;28;48715;-52
2021/10/11 03:59:25;;;;;;;;;44.75;37.50;;;;;16.62;64.02;102170.53;2090661;28;47872;-50
2021/10/11 04:00:25;;;;;;;;;47.50;38.75;;;;;16.62;63.82;102169.66;2090541;28;47346;-49
2021/10/11 04:01:26;;;;;;;;;44.25;37.75;;;;;16.62;63.81;102167.84;2090127;28;47133;-51
2021/10/11 04:02:27;;;;;;;;;41.50;36.50;;;;;16.63;63.93;102171.41;2091073;28;47414;-49
2021/10/11 04:03:27;;;;;;;;;40.00;34.00;;;;;16.63;63.80;102166.94;2090718;28;47523;-53
2021/10/11 04:04:28;;;;;;;;;38.50;32.25;;;;;16.63;64.29;102169.59;2091742;28;46890;-50
2021/10/11 04:05:28;;;;;;;;;36.75;32.50;;;;;16.62;63.65;102165.16;2090477;28;47200;-50
2021/10/11 04:06:29;;;;;;;;;40.75;34.75;;;;;16.63;64.17;102164.25;2092604;28;47093;-50
2021/10/11 04:07:30;;;;;;;;;37.00;32.75;;;;;16.63;63.96;102168.72;2091911;28;47527;-53
2021/10/11 04:08:35;;;;;;;;;39.60;33.80;;;;;16.63;63.88;102166.03;2092392;28;47311;-51
2021/10/11 04:09:37;;;;;;;;;41.40;34.00;;;;;16.62;64.27;102159.81;2092196;28;48036;-52
2021/10/11 04:10:46;;;;;;;;;38.00;33.60;;;;;16.63;64.34;102160.69;2092604;28;48156;-53
2021/10/11 04:11:46;;;;;;;;;42.20;33.80;;;;;16.62;64.33;102159.81;2089141;28;47496;-51
2021/10/11 04:12:50;;;;;;;;;34.50;30.00;;;;;16.62;64.29;102165.16;2092489;28;45293;-53
2021/10/11 04:13:51;;;;;;;;;32.00;30.60;;;;;16.62;64.03;102164.28;2092131;28;48386;-52
2021/10/11 04:14:53;;;;;;;;;34.60;31.60;;;;;16.61;64.37;102171.44;2091974;28;47445;-53
2021/10/11 04:15:53;;;;;;;;;30.60;29.80;;;;;16.60;64.04;102161.66;2091485;28;47208;-51
2021/10/11 04:16:54;;;;;;;;;32.25;30.75;;;;;16.61;64.15;102162.53;2091683;28;48390;-51
2021/10/11 04:17:55;;;;;;;;;28.25;26.75;;;;;16.61;63.95;102173.25;2091321;28;47368;-50
2021/10/11 04:18:56;;;;;;;;;28.80;27.80;;;;;16.60;63.96;102169.69;2092442;28;48542;-51
2021/10/11 04:19:56;;;;;;;;;29.00;29.00;;;;;16.59;64.30;102165.25;2091806;28;48114;-53
2021/10/11 04:20:57;;;;;;;;;31.75;30.00;;;;;16.59;64.21;102173.28;2092462;28;47308;-50
2021/10/11 04:21:57;;;;;;;;;32.75;30.75;;;;;16.58;64.14;102168.84;2091494;28;47754;-47
2021/10/11 04:22:58;;;;;;;;;33.50;29.50;;;;;16.58;63.90;102168.84;2083359;28;48210;-50
2021/10/11 04:23:58;;;;;;;;;29.50;27.50;;;;;16.58;64.40;102168.84;2091444;28;47312;-52
2021/10/11 04:24:59;;;;;;;;;29.00;28.25;;;;;16.56;64.34;102173.38;2092370;28;47379;-48
2021/10/11 04:25:59;;;;;;;;;29.00;28.50;;;;;16.54;64.13;102169.84;2092087;28;47596;-50
2021/10/11 04:27:00;;;;;;;;;30.00;28.00;;;;;16.54;64.12;102175.22;2090598;28;47234;-51
2021/10/11 04:28:00;;;;;;;;;26.25;26.25;;;;;16.53;64.13;102178.81;2091214;28;47498;-51
2021/10/11 04:29:01;;;;;;;;;31.25;30.25;;;;;16.53;64.44;102172.56;2092382;28;46604;-51
2021/10/11 04:30:03;;;;;;;;;26.20;26.00;;;;;16.52;64.35;102177.03;2083294;28;47198;-53
2021/10/11 04:31:03;;;;;;;;;28.20;24.80;;;;;16.51;64.38;102180.63;2085918;28;48148;-49
2021/10/11 04:32:05;;;;;;;;;29.50;26.50;;;;;16.51;64.37;102177.94;2091273;28;45116;-49
2021/10/11 04:33:05;;;;;;;;;29.80;27.80;;;;;16.52;64.16;102179.72;2092036;28;47451;-52
2021/10/11 04:34:06;;;;;;;;;29.25;27.25;;;;;16.50;64.51;102176.16;2091919;28;47179;-52
2021/10/11 04:35:07;;;;;;;;;28.50;24.50;;;;;16.49;64.33;102180.66;2091702;28;47400;-50
2021/10/11 04:36:09;;;;;;;;;29.75;29.00;;;;;16.48;64.26;102172.66;2091212;28;47248;-52